Time;durP1;ratioP1;P1;durP2;ratioP2;P2;SDS_P1;SDS_P2;PMS_P1;PMS_P2;Temp;Humidity;BMP_temperature;BMP_pressure;BME280_temperature;BME280_humidity;BME280_pressure;Samples;Min_cycle;Max_cycle;Signal;HPM_P1;HPM_P2
2022/05/12 00:00:37;;;;;;;4.75;0.98;;;;;;;;;;5024421;28;20124;-72
2022/05/12 00:03:04;;;;;;;3.15;0.98;;;;;;;;;;5031961;28;20120;-72
2022/05/12 00:05:30;;;;;;;5.32;1.90;;;;;;;;;;5045044;28;20048;-72
2022/05/12 00:07:56;;;;;;;0.90;0.50;;;;;;;;;;5034692;28;20053;-71
2022/05/12 00:10:24;;;;;;;2.72;0.80;;;;;;;;;;5033868;28;20045;-72
2022/05/12 00:12:50;;;;;;;4.60;1.20;;;;;;;;;;5031676;28;20375;-71
2022/05/12 00:15:19;;;;;;;4.28;0.70;;;;;;;;;;5040569;28;20053;-72
2022/05/12 00:17:45;;;;;;;3.80;0.88;;;;;;;;;;5049720;28;20454;-71
2022/05/12 00:20:15;;;;;;;5.25;0.93;;;;;;;;;;5031262;28;20041;-71
2022/05/12 00:22:41;;;;;;;2.10;0.90;;;;;;;;;;5019765;28;20049;-71
2022/05/12 00:25:15;;;;;;;3.08;0.90;;;;;;;;;;5050807;28;20131;-71
2022/05/12 00:27:41;;;;;;;2.58;0.90;;;;;;;;;;5052170;28;20048;-71
2022/05/12 00:30:09;;;;;;;2.33;0.80;;;;;;;;;;5055225;28;20053;-71
2022/05/12 00:32:39;;;;;;;6.55;1.27;;;;;;;;;;5052305;28;20052;-72
2022/05/12 00:35:06;;;;;;;8.13;1.27;;;;;;;;;;5043011;28;20048;-71
2022/05/12 00:37:32;;;;;;;3.45;1.13;;;;;;;;;;5050634;28;20489;-71
2022/05/12 00:39:58;;;;;;;4.25;1.15;;;;;;;;;;5024663;28;20508;-72
2022/05/12 00:42:24;;;;;;;5.20;1.20;;;;;;;;;;5042806;28;20044;-71
2022/05/12 00:44:51;;;;;;;3.80;0.93;;;;;;;;;;5047572;28;20049;-70
2022/05/12 00:47:17;;;;;;;2.55;1.10;;;;;;;;;;5017812;28;20065;-71
2022/05/12 00:49:44;;;;;;;5.82;1.83;;;;;;;;;;5017841;28;20053;-71
2022/05/12 00:52:23;;;;;;;3.05;1.60;;;;;;;;;;5026163;28;20051;-71
2022/05/12 00:55:01;;;;;;;5.72;2.05;;;;;;;;;;5052986;28;20099;-71
2022/05/12 00:57:32;;;;;;;8.15;1.95;;;;;;;;;;5035677;28;20065;-72
2022/05/12 00:59:59;;;;;;;4.38;1.52;;;;;;;;;;5040443;28;20038;-71
2022/05/12 01:02:26;;;;;;;4.38;1.80;;;;;;;;;;5052730;28;20041;-71
2022/05/12 01:04:55;;;;;;;8.90;1.73;;;;;;;;;;5050634;28;20103;-71
2022/05/12 01:07:21;;;;;;;5.22;2.25;;;;;;;;;;5042799;28;20049;-71
2022/05/12 01:09:47;;;;;;;10.27;1.50;;;;;;;;;;5053720;28;20124;-71
2022/05/12 01:12:13;;;;;;;3.50;1.70;;;;;;;;;;5054293;28;20049;-73
2022/05/12 01:14:39;;;;;;;12.88;2.42;;;;;;;;;;5053556;28;20056;-70
2022/05/12 01:17:07;;;;;;;4.75;1.42;;;;;;;;;;5051395;28;20080;-71
2022/05/12 01:19:35;;;;;;;6.00;1.50;;;;;;;;;;5023051;28;20054;-70
2022/05/12 01:22:02;;;;;;;6.40;1.67;;;;;;;;;;5045838;28;20120;-70
2022/05/12 01:24:37;;;;;;;11.07;1.73;;;;;;;;;;5008531;28;20123;-71
2022/05/12 01:27:19;;;;;;;8.23;3.05;;;;;;;;;;5035421;28;20390;-71
2022/05/12 01:30:04;;;;;;;9.35;1.58;;;;;;;;;;5053868;28;20115;-71
2022/05/12 01:32:30;;;;;;;6.00;1.38;;;;;;;;;;5051941;28;20103;-71
2022/05/12 01:34:57;;;;;;;9.55;1.88;;;;;;;;;;5041238;28;20051;-71
2022/05/12 01:37:23;;;;;;;7.95;1.63;;;;;;;;;;5028058;28;20103;-70
2022/05/12 01:39:49;;;;;;;8.02;1.77;;;;;;;;;;5015029;28;20120;-71
2022/05/12 01:42:15;;;;;;;8.48;1.90;;;;;;;;;;5033954;28;20063;-71
2022/05/12 01:44:42;;;;;;;6.65;1.48;;;;;;;;;;5016085;28;20085;-71
2022/05/12 01:47:08;;;;;;;4.95;1.27;;;;;;;;;;5037968;28;20071;-70
2022/05/12 01:49:34;;;;;;;6.75;1.40;;;;;;;;;;5014267;28;20102;-71
2022/05/12 01:52:01;;;;;;;10.07;1.30;;;;;;;;;;5047250;28;20378;-70
2022/05/12 01:54:27;;;;;;;8.32;1.40;;;;;;;;;;5034603;28;20092;-70
2022/05/12 01:56:54;;;;;;;5.45;1.60;;;;;;;;;;5016235;28;20042;-70
2022/05/12 01:59:20;;;;;;;6.82;1.75;;;;;;;;;;5020471;28;20048;-70
2022/05/12 02:01:47;;;;;;;6.13;1.75;;;;;;;;;;5040082;28;20049;-71
2022/05/12 02:04:13;;;;;;;8.23;1.88;;;;;;;;;;5047572;28;20791;-71
2022/05/12 02:06:39;;;;;;;9.20;1.80;;;;;;;;;;5033419;28;20453;-71
2022/05/12 02:09:06;;;;;;;10.90;2.13;;;;;;;;;;5053112;28;20102;-71
2022/05/12 02:11:32;;;;;;;5.35;1.70;;;;;;;;;;5052934;28;20049;-71
2022/05/12 02:13:58;;;;;;;5.57;1.63;;;;;;;;;;5052833;28;20128;-71
2022/05/12 02:16:25;;;;;;;7.78;2.08;;;;;;;;;;5026645;28;20057;-71
2022/05/12 02:18:52;;;;;;;13.40;2.17;;;;;;;;;;5033208;28;20418;-71
2022/05/12 02:21:18;;;;;;;11.60;2.00;;;;;;;;;;5029395;28;20037;-71
2022/05/12 02:23:44;;;;;;;7.68;2.10;;;;;;;;;;5016151;28;20083;-72
2022/05/12 02:26:10;;;;;;;7.28;1.90;;;;;;;;;;5013654;28;20042;-71
2022/05/12 02:28:37;;;;;;;10.07;2.15;;;;;;;;;;5013077;28;20041;-71
2022/05/12 02:31:03;;;;;;;13.23;2.85;;;;;;;;;;5013010;28;20500;-72
2022/05/12 02:33:29;;;;;;;10.50;2.55;;;;;;;;;;5013266;28;20597;-71
2022/05/12 02:35:56;;;;;;;13.57;2.35;;;;;;;;;;5026564;28;20505;-70
2022/05/12 02:38:22;;;;;;;11.85;2.40;;;;;;;;;;5012431;28;20120;-71
2022/05/12 02:40:48;;;;;;;9.80;2.60;;;;;;;;;;5013198;28;20095;-71
2022/05/12 02:43:23;;;;;;;12.20;2.40;;;;;;;;;;5011710;28;20049;-71
2022/05/12 02:45:50;;;;;;;9.60;2.47;;;;;;;;;;5018529;28;20049;-71
2022/05/12 02:48:17;;;;;;;8.93;2.50;;;;;;;;;;5023019;28;20077;-71
2022/05/12 02:50:43;;;;;;;7.68;2.30;;;;;;;;;;5017972;28;20049;-71
2022/05/12 02:53:09;;;;;;;7.00;2.35;;;;;;;;;;5014717;28;20045;-71
2022/05/12 02:55:35;;;;;;;11.30;3.17;;;;;;;;;;5015867;28;20076;-71
2022/05/12 02:58:01;;;;;;;8.63;2.03;;;;;;;;;;5011444;28;20128;-71
2022/05/12 03:00:27;;;;;;;13.75;3.08;;;;;;;;;;5027652;28;20177;-71
2022/05/12 03:02:53;;;;;;;15.15;2.38;;;;;;;;;;4995116;28;20050;-71
2022/05/12 03:05:19;;;;;;;10.63;2.70;;;;;;;;;;5015131;28;20069;-72
2022/05/12 03:07:45;;;;;;;11.68;2.95;;;;;;;;;;5031181;28;20120;-71
2022/05/12 03:10:13;;;;;;;9.57;3.40;;;;;;;;;;5032322;28;20421;-71
2022/05/12 03:12:39;;;;;;;9.25;2.88;;;;;;;;;;5031266;28;20049;-71
2022/05/12 03:15:06;;;;;;;13.80;3.00;;;;;;;;;;5018812;28;20061;-71
2022/05/12 03:17:32;;;;;;;11.73;2.90;;;;;;;;;;5037360;28;20451;-71
2022/05/12 03:19:58;;;;;;;8.13;3.05;;;;;;;;;;5034294;28;20103;-70
2022/05/12 03:22:24;;;;;;;11.02;3.13;;;;;;;;;;5037771;28;20045;-71
2022/05/12 03:24:51;;;;;;;10.30;3.00;;;;;;;;;;5032035;28;20056;-70
2022/05/12 03:27:17;;;;;;;11.25;2.78;;;;;;;;;;5021856;28;20443;-71
2022/05/12 03:29:43;;;;;;;8.02;3.92;;;;;;;;;;5050225;28;20485;-71
2022/05/12 03:32:12;;;;;;;9.00;3.40;;;;;;;;;;5019635;28;20053;-70
2022/05/12 03:34:41;;;;;;;13.55;3.30;;;;;;;;;;5026801;28;20056;-71
2022/05/12 03:37:08;;;;;;;9.35;3.10;;;;;;;;;;5034481;28;20095;-72
2022/05/12 03:39:39;;;;;;;11.52;3.40;;;;;;;;;;5046530;28;20053;-71
2022/05/12 03:42:10;;;;;;;12.23;4.05;;;;;;;;;;5036064;28;20108;-71
2022/05/12 03:44:49;;;;;;;14.93;3.63;;;;;;;;;;5051984;28;20055;-71
2022/05/12 03:47:19;;;;;;;9.65;3.38;;;;;;;;;;5034619;28;20038;-71
2022/05/12 03:49:45;;;;;;;10.65;4.30;;;;;;;;;;5032178;28;20054;-71
2022/05/12 03:52:12;;;;;;;8.43;3.33;;;;;;;;;;5022322;28;20049;-72
2022/05/12 03:54:40;;;;;;;10.70;3.60;;;;;;;;;;5050150;28;20124;-71
2022/05/12 03:57:06;;;;;;;14.18;4.53;;;;;;;;;;5043703;28;20045;-71
2022/05/12 03:59:33;;;;;;;10.45;3.45;;;;;;;;;;5020576;28;20088;-71
2022/05/12 04:01:59;;;;;;;9.27;4.47;;;;;;;;;;5033775;28;20542;-71
2022/05/12 04:04:25;;;;;;;10.43;3.92;;;;;;;;;;5055281;28;20041;-71
2022/05/12 04:06:51;;;;;;;16.05;5.05;;;;;;;;;;5029628;28;20037;-71
2022/05/12 04:09:17;;;;;;;13.07;4.97;;;;;;;;;;5038085;28;20049;-71
2022/05/12 04:11:43;;;;;;;13.70;4.68;;;;;;;;;;5039124;28;20056;-71
2022/05/12 04:14:09;;;;;;;11.10;4.55;;;;;;;;;;5036952;28;20056;-71
2022/05/12 04:16:36;;;;;;;8.45;3.72;;;;;;;;;;5013428;28;20053;-71
2022/05/12 04:19:05;;;;;;;13.27;4.35;;;;;;;;;;5036353;28;20090;-71
2022/05/12 04:21:34;;;;;;;14.43;4.68;;;;;;;;;;5041112;28;20052;-71
2022/05/12 04:24:01;;;;;;;13.02;5.60;;;;;;;;;;5042014;28;20586;-71
2022/05/12 04:26:27;;;;;;;8.52;5.45;;;;;;;;;;5023610;28;20130;-71
2022/05/12 04:28:53;;;;;;;14.52;5.57;;;;;;;;;;5054751;28;20128;-71
2022/05/12 04:31:19;;;;;;;9.30;4.57;;;;;;;;;;5025487;28;20441;-71
2022/05/12 04:36:29;;;;;;;10.50;5.05;;;;;;;;;;5045325;28;20133;-71
2022/05/12 04:38:55;;;;;;;13.77;4.85;;;;;;;;;;5054801;28;20135;-71
2022/05/12 04:41:21;;;;;;;10.18;4.38;;;;;;;;;;5036195;28;20044;-72
2022/05/12 04:43:47;;;;;;;9.15;5.43;;;;;;;;;;5036084;28;20266;-70
2022/05/12 04:46:13;;;;;;;8.63;4.53;;;;;;;;;;5031651;28;20532;-70
2022/05/12 04:48:40;;;;;;;10.35;4.60;;;;;;;;;;5035302;28;20052;-70
2022/05/12 04:51:06;;;;;;;12.20;6.25;;;;;;;;;;5052925;28;20462;-71
2022/05/12 04:53:32;;;;;;;13.40;6.00;;;;;;;;;;5020769;28;20060;-70
2022/05/12 04:55:58;;;;;;;12.23;6.10;;;;;;;;;;5052287;28;20045;-70
2022/05/12 04:58:26;;;;;;;14.07;6.28;;;;;;;;;;5053893;28;20094;-71
2022/05/12 05:00:52;;;;;;;13.85;6.68;;;;;;;;;;5034694;28;20041;-71
2022/05/12 05:03:18;;;;;;;18.60;6.35;;;;;;;;;;5021693;28;20065;-70
2022/05/12 05:05:44;;;;;;;15.63;6.35;;;;;;;;;;5027084;28;20045;-70
2022/05/12 05:08:13;;;;;;;14.75;6.85;;;;;;;;;;5054111;28;20084;-72
2022/05/12 05:10:39;;;;;;;12.90;6.10;;;;;;;;;;5053600;28;20514;-72
2022/05/12 05:13:05;;;;;;;12.35;5.78;;;;;;;;;;5018498;28;20046;-72
2022/05/12 05:15:31;;;;;;;17.88;5.60;;;;;;;;;;5033850;28;20053;-71
2022/05/12 05:17:58;;;;;;;13.35;4.80;;;;;;;;;;5041082;28;20051;-70
2022/05/12 05:20:25;;;;;;;15.50;5.13;;;;;;;;;;5022371;28;20044;-71
2022/05/12 05:22:51;;;;;;;18.33;4.65;;;;;;;;;;5017219;28;20050;-71
2022/05/12 05:25:17;;;;;;;15.02;4.90;;;;;;;;;;5034391;28;20049;-71
2022/05/12 05:27:46;;;;;;;14.63;4.75;;;;;;;;;;5001321;28;20060;-72
2022/05/12 05:30:13;;;;;;;14.63;4.85;;;;;;;;;;5044386;28;20052;-71
2022/05/12 05:32:39;;;;;;;10.82;4.43;;;;;;;;;;5045883;28;20060;-70
2022/05/12 05:35:07;;;;;;;15.10;3.75;;;;;;;;;;5034085;28;20481;-70
2022/05/12 05:37:33;;;;;;;13.95;3.60;;;;;;;;;;5052782;28;20051;-75
2022/05/12 05:39:59;;;;;;;11.77;4.35;;;;;;;;;;5001975;28;20045;-70
2022/05/12 05:42:25;;;;;;;8.68;3.13;;;;;;;;;;5053410;28;20114;-69
2022/05/12 05:44:51;;;;;;;10.45;3.25;;;;;;;;;;5052178;28;20525;-70
2022/05/12 05:47:17;;;;;;;9.88;3.00;;;;;;;;;;5051458;28;20045;-71
2022/05/12 05:49:43;;;;;;;11.35;3.53;;;;;;;;;;5033059;28;20080;-71
2022/05/12 05:54:54;;;;;;;11.65;4.15;;;;;;;;;;5047064;28;20049;-71
2022/05/12 05:57:24;;;;;;;11.10;2.92;;;;;;;;;;5049537;28;20120;-75
2022/05/12 05:59:50;;;;;;;8.18;2.60;;;;;;;;;;5024291;28;20045;-75
2022/05/12 06:02:16;;;;;;;9.80;3.60;;;;;;;;;;5035541;28;20049;-75
2022/05/12 06:04:42;;;;;;;8.65;2.92;;;;;;;;;;5033897;28;20049;-75
2022/05/12 06:07:09;;;;;;;9.63;3.17;;;;;;;;;;5018454;28;20094;-75
2022/05/12 06:09:35;;;;;;;9.48;3.05;;;;;;;;;;5032842;28;20123;-75
2022/05/12 06:12:01;;;;;;;12.10;3.80;;;;;;;;;;5015691;28;20056;-75
2022/05/12 06:14:28;;;;;;;10.75;4.70;;;;;;;;;;5026503;28;20135;-73
2022/05/12 06:16:54;;;;;;;11.07;4.03;;;;;;;;;;5017650;28;20057;-74
2022/05/12 06:19:20;;;;;;;10.88;4.25;;;;;;;;;;5050186;28;20132;-75
2022/05/12 06:21:46;;;;;;;13.32;4.80;;;;;;;;;;5015787;28;20049;-73
2022/05/12 06:24:12;;;;;;;14.52;4.07;;;;;;;;;;5035333;28;20048;-74
2022/05/12 06:26:38;;;;;;;12.88;3.80;;;;;;;;;;5016947;28;20049;-75
2022/05/12 06:29:06;;;;;;;8.07;3.00;;;;;;;;;;5026332;28;20041;-75
2022/05/12 06:31:34;;;;;;;9.65;2.83;;;;;;;;;;5034720;28;20052;-74
2022/05/12 06:34:00;;;;;;;14.05;4.00;;;;;;;;;;5033468;28;20037;-74
2022/05/12 06:36:28;;;;;;;11.18;2.90;;;;;;;;;;5016998;28;20049;-72
2022/05/12 06:38:54;;;;;;;8.23;2.55;;;;;;;;;;5032170;28;20048;-72
2022/05/12 06:41:20;;;;;;;12.80;2.85;;;;;;;;;;5014858;28;20041;-74
2022/05/12 06:43:47;;;;;;;12.98;2.58;;;;;;;;;;5044591;28;20404;-75
2022/05/12 06:46:17;;;;;;;10.05;1.90;;;;;;;;;;5050572;28;20045;-72
2022/05/12 06:48:44;;;;;;;11.00;1.85;;;;;;;;;;5036487;28;20095;-73
2022/05/12 06:51:11;;;;;;;10.90;2.03;;;;;;;;;;5048579;28;20048;-72
2022/05/12 06:53:38;;;;;;;11.75;3.03;;;;;;;;;;5030798;28;20451;-72
2022/05/12 06:56:04;;;;;;;7.10;1.80;;;;;;;;;;5018241;28;20049;-72
2022/05/12 06:58:30;;;;;;;7.93;2.03;;;;;;;;;;5033554;28;20051;-74
2022/05/12 07:00:56;;;;;;;8.40;2.08;;;15.70;99.90;;;;;;5017221;28;20045;-72
2022/05/12 07:03:22;;;;;;;11.75;1.85;;;;;;;;;;5031217;28;20048;-73
2022/05/12 07:05:48;;;;;;;10.25;2.17;;;;;;;;;;5033683;28;20131;-72
2022/05/12 07:08:15;;;;;;;5.88;2.53;;;;;;;;;;5032266;28;20045;-72
2022/05/12 07:10:41;;;;;;;9.15;1.75;;;;;;;;;;5027200;28;20044;-73
2022/05/12 07:13:06;;;;;;;10.27;2.67;;;16.40;99.90;;;;;;5014265;28;20528;-73
2022/05/12 07:15:32;;;;;;;11.05;1.95;;;;;;;;;;5014452;28;20088;-73
2022/05/12 07:17:59;;;;;;;10.02;2.28;;;;;;;;;;5032039;28;20053;-72
2022/05/12 07:28:40;;;;;;;11.32;2.00;;;;;;;;;;5032209;28;20050;-72
2022/05/12 07:31:09;;;;;;;11.15;2.25;;;17.10;99.90;;;;;;5032029;28;20045;-73
2022/05/12 07:33:41;;;;;;;11.15;2.08;;;17.00;99.90;;;;;;5018506;23;20045;-73
2022/05/12 07:36:11;;;;;;;8.90;2.40;;;17.10;99.90;;;;;;5037044;23;20064;-72
2022/05/12 07:38:37;;;;;;;8.20;2.10;;;;;;;;;;4990295;28;20398;-73
2022/05/12 07:41:04;;;;;;;10.77;1.83;;;17.20;99.90;;;;;;5032069;28;20148;-74
2022/05/12 07:43:30;;;;;;;15.40;1.92;;;17.10;99.90;;;;;;5002587;28;20048;-72
2022/05/12 07:45:56;;;;;;;7.25;2.60;;;;;;;;;;5018503;28;20436;-73
2022/05/12 07:48:22;;;;;;;7.82;1.70;;;;;;;;;;5018663;28;20049;-72
2022/05/12 07:50:48;;;;;;;9.32;1.95;;;;;;;;;;5036329;28;20045;-73
2022/05/12 07:53:14;;;;;;;9.63;1.60;;;;;;;;;;5010316;28;20052;-72
2022/05/12 07:55:41;;;;;;;9.70;2.30;;;;;;;;;;4982803;28;20486;-73
2022/05/12 07:58:07;;;;;;;10.50;2.10;;;17.30;99.90;;;;;;4982404;28;20049;-72
2022/05/12 08:00:33;;;;;;;9.40;2.17;;;;;;;;;;4997757;28;20049;-73
2022/05/12 08:03:00;;;;;;;10.25;2.20;;;;;;;;;;4998574;28;20046;-72
2022/05/12 08:05:26;;;;;;;11.18;2.53;;;17.70;99.90;;;;;;4998813;28;20049;-72
2022/05/12 08:07:52;;;;;;;9.55;1.90;;;;;;;;;;5007845;28;20075;-72
2022/05/12 08:10:19;;;;;;;10.68;2.20;;;17.50;99.90;;;;;;5017863;28;20049;-72
2022/05/12 08:12:45;;;;;;;6.25;1.50;;;17.60;99.90;;;;;;5018079;28;20119;-72
2022/05/12 08:15:12;;;;;;;8.13;1.85;;;17.60;99.90;;;;;;5017632;28;20405;-72
2022/05/12 08:17:37;;;;;;;6.07;1.60;;;17.50;99.90;;;;;;5018068;28;20049;-71
2022/05/12 08:20:08;;;;;;;9.02;2.08;;;17.30;99.90;;;;;;5035709;28;20048;-72
2022/05/12 08:22:34;;;;;;;;;;;;;;;;;;5033862;28;20122;-73
2022/05/12 08:25:00;;;;;;;9.15;2.25;;;;;;;;;;5010926;28;20044;-72
2022/05/12 08:27:26;;;;;;;9.63;2.45;;;17.60;99.90;;;;;;5028388;28;20568;-71
2022/05/12 08:29:52;;;;;;;10.05;1.92;;;17.90;99.90;;;;;;5017930;28;20073;-72
2022/05/12 08:32:19;;;;;;;9.73;1.90;;;17.70;99.90;;;;;;5017751;28;20124;-72
2022/05/12 08:34:44;;;;;;;11.38;1.98;;;17.90;99.90;;;;;;5035507;28;20151;-71
2022/05/12 08:37:11;;;;;;;8.15;1.70;;;;;;;;;;5043416;28;20061;-72
2022/05/12 08:39:37;;;;;;;8.43;2.08;;;17.90;99.90;;;;;;5017953;28;20041;-72
2022/05/12 08:42:18;;;;;;;6.75;1.92;;;18.00;99.90;;;;;;5035346;28;20466;-71
2022/05/12 08:44:44;;;;;;;4.93;1.70;;;17.90;99.90;;;;;;5017532;28;20405;-73
2022/05/12 08:47:13;;;;;;;8.65;2.17;;;17.90;99.90;;;;;;5017796;28;20084;-72
2022/05/12 08:49:47;;;;;;;10.40;1.85;;;17.90;99.90;;;;;;5034305;28;20041;-72
2022/05/12 08:52:22;;;;;;;9.95;2.05;;;18.10;99.90;;;;;;5048249;28;20057;-72
2022/05/12 08:54:59;;;;;;;7.30;1.83;;;18.20;99.90;;;;;;5037253;28;20500;-71
2022/05/12 08:57:36;;;;;;;7.15;1.50;;;18.50;99.90;;;;;;5054709;28;20099;-72
2022/05/12 09:00:06;;;;;;;8.80;1.48;;;18.20;99.90;;;;;;5036415;28;20141;-72
2022/05/12 09:02:42;;;;;;;;;;;18.10;99.90;;;;;;5021205;28;20147;-72
2022/05/12 09:05:12;;;;;;;6.50;1.73;;;18.20;99.90;;;;;;5020697;28;19921;-72
2022/05/12 09:07:45;;;;;;;6.28;1.52;;;18.20;99.90;;;;;;5036298;28;20485;-71
2022/05/12 09:10:13;;;;;;;6.22;1.55;;;18.30;99.90;;;;;;5054829;28;20049;-72
2022/05/12 09:12:51;;;;;;;9.40;1.88;;;18.50;99.90;;;;;;5054664;28;20435;-71
2022/05/12 09:15:17;;;;;;;8.23;1.40;;;;;;;;;;5053929;28;20092;-72
2022/05/12 09:18:22;;;;;;;8.10;1.52;;;18.70;99.90;;;;;;5054461;28;20084;-72
2022/05/12 09:20:48;;;;;;;7.05;3.53;;;18.70;99.90;;;;;;4966813;28;20131;-71
2022/05/12 09:23:14;;;;;;;5.75;1.52;;;;;;;;;;5021406;28;20463;-71
2022/05/12 09:25:45;;;;;;;8.00;1.92;;;19.10;99.90;;;;;;5034378;28;20041;-72
2022/05/12 09:28:28;;;;;;;7.28;1.73;;;19.00;99.90;;;;;;5016866;28;20045;-72
2022/05/12 09:31:20;;;;;;;6.07;1.42;;;18.90;99.90;;;;;;5000367;28;20471;-72
2022/05/12 09:33:51;;;;;;;5.30;1.58;;;18.80;99.90;;;;;;5031490;28;20140;-72
2022/05/12 09:36:22;;;;;;;4.47;1.23;;;19.00;99.90;;;;;;5035243;28;20071;-71
2022/05/12 09:38:54;;;;;;;5.05;1.52;;;;;;;;;;5036508;28;20057;-72
2022/05/12 09:41:31;;;;;;;5.18;1.73;;;18.60;99.90;;;;;;5019941;28;20067;-72
2022/05/12 09:43:57;;;;;;;7.93;1.75;;;18.80;99.90;;;;;;5036093;28;20049;-72
2022/05/12 09:46:30;;;;;;;4.65;1.48;;;18.90;99.90;;;;;;5036483;28;20048;-72
2022/05/12 09:49:20;;;;;;;7.10;1.52;;;18.90;99.90;;;;;;5054003;28;20041;-73
2022/05/12 09:51:46;;;;;;;6.88;1.55;;;18.70;99.90;;;;;;5053437;28;20080;-73
2022/05/12 09:54:29;;;;;;;7.45;1.80;;;;;;;;;;5036043;28;20151;-72
2022/05/12 09:57:04;;;;;;;5.47;2.00;;;18.70;99.90;;;;;;5052036;28;20060;-71
2022/05/12 09:59:32;;;;;;;3.80;1.25;;;18.40;99.90;;;;;;5035922;28;20363;-73
2022/05/12 10:02:05;;;;;;;7.80;1.48;;;18.50;99.90;;;;;;5052869;28;20045;-72
2022/05/12 10:10:18;;;;;;;7.22;1.38;;;;;;;;;;5034555;28;20085;-71
2022/05/12 10:12:51;;;;;;;4.88;1.05;;;18.50;99.90;;;;;;5035927;28;20405;-72
2022/05/12 10:15:20;;;;;;;3.88;1.50;;;;;;;;;;5053533;28;20477;-72
2022/05/12 10:17:54;;;;;;;5.15;1.23;;;18.40;99.90;;;;;;5035850;28;20051;-72
2022/05/12 10:20:23;;;;;;;3.08;1.30;;;18.50;99.90;;;;;;5053237;28;20157;-72
2022/05/12 10:23:10;;;;;;;3.83;1.17;;;18.60;99.90;;;;;;5035464;28;20104;-72
2022/05/12 10:25:57;;;;;;;8.52;1.40;;;18.80;99.90;;;;;;5033715;28;20049;-71
2022/05/12 10:28:57;;;;;;;6.90;1.50;;;19.00;99.90;;;;;;5035168;28;20458;-73
2022/05/12 10:31:37;;;;;;;7.72;1.25;;;;;;;;;;5035365;28;20095;-71
2022/05/12 10:34:19;;;;;;;6.57;1.40;;;;;;;;;;5053204;28;20401;-73
2022/05/12 10:36:52;;;;;;;5.30;1.23;;;18.30;99.90;;;;;;5051978;28;20057;-72
2022/05/12 10:39:41;;;;;;;3.67;1.20;;;;;;;;;;5049205;28;20048;-72
2022/05/12 10:42:13;;;;;;;7.03;1.42;;;;;;;;;;5038151;28;20045;-71
2022/05/12 10:45:01;;;;;;;6.25;1.42;;;18.70;99.90;;;;;;5016830;28;20049;-72
2022/05/12 10:47:26;;;;;;;7.00;1.92;;;;;;;;;;5018574;28;20061;-72
2022/05/12 10:50:05;;;;;;;6.15;1.20;;;;;;;;;;5034940;28;20386;-72
2022/05/12 10:52:49;;;;;;;6.28;1.80;;;;;;;;;;5017688;28;20092;-72
2022/05/12 10:55:15;;;;;;;5.95;1.27;;;;;;;;;;5025433;28;20103;-72
2022/05/12 10:57:44;;;;;;;4.80;1.35;;;;;;;;;;5038849;28;20525;-72
2022/05/12 11:00:26;;;;;;;6.07;1.50;;;;;;;;;;5031775;28;20044;-73
2022/05/12 11:02:54;;;;;;;7.65;1.58;;;;;;;;;;5000919;28;20061;-72
2022/05/12 11:05:35;;;;;;;4.50;1.52;;;18.40;99.90;;;;;;5048992;28;20168;-72
2022/05/12 11:08:12;;;;;;;3.80;1.15;;;;;;;;;;5011659;28;20551;-72
2022/05/12 11:10:45;;;;;;;4.10;1.15;;;;;;;;;;5024488;28;20587;-71
2022/05/12 11:13:13;;;;;;;6.50;1.20;;;;;;;;;;5052281;28;20053;-72
2022/05/12 11:16:18;;;;;;;6.20;1.17;;;19.10;99.90;;;;;;5024189;28;20088;-72
2022/05/12 11:19:05;;;;;;;7.57;1.70;;;;;;;;;;5040905;28;20405;-72
2022/05/12 11:21:31;;;;;;;5.25;1.25;;;;;;;;;;5019460;28;20034;-73
2022/05/12 11:24:04;;;;;;;4.75;1.25;;;;;;;;;;5001426;28;20095;-72
2022/05/12 11:26:30;;;;;;;3.95;1.10;;;;;;;;;;5045478;28;20084;-73
2022/05/12 11:32:04;;;;;;;5.30;1.70;;;;;;;;;;4953455;28;20125;-72
2022/05/12 11:34:30;;;;;;;5.57;1.83;;;;;;;;;;4970500;28;20059;-72
2022/05/12 11:36:56;;;;;;;6.15;1.50;;;;;;;;;;4948214;29;20103;-72
2022/05/12 11:39:55;;;;;;;4.00;1.30;;;19.10;99.90;;;;;;4978543;28;20054;-73
2022/05/12 11:42:25;;;;;;;5.53;1.05;;;;;;;;;;4965940;28;20078;-72
2022/05/12 11:45:11;;;;;;;4.50;1.45;;;;;;;;;;4952264;28;20054;-72
2022/05/12 11:47:48;;;;;;;3.50;1.17;;;18.80;99.90;;;;;;4966557;28;20471;-71
2022/05/12 11:50:31;;;;;;;4.25;1.20;;;;;;;;;;4970271;28;20062;-71
2022/05/12 11:53:12;;;;;;;6.25;1.30;;;19.10;99.90;;;;;;4979368;28;20129;-71
2022/05/12 11:56:01;;;;;;;7.30;1.88;;;19.40;99.90;;;;;;4950804;28;20142;-73
2022/05/12 11:58:41;;;;;;;4.72;1.23;;;;;;;;;;4974367;28;20086;-71
2022/05/12 12:01:14;;;;;;;;;;;19.80;99.90;;;;;;4955186;28;20055;-72
2022/05/12 12:03:49;;;;;;;3.63;0.95;;;;;;;;;;4977300;28;20318;-71
2022/05/12 12:06:34;;;;;;;5.72;1.25;;;;;;;;;;4970715;28;20448;-72
2022/05/12 12:09:20;;;;;;;5.50;1.45;;;;;;;;;;5051268;28;20060;-71
2022/05/12 12:11:46;;;;;;;5.50;1.30;;;20.30;99.90;;;;;;5050090;28;20413;-73
2022/05/12 12:14:47;;;;;;;3.25;1.08;;;20.40;99.90;;;;;;5029226;28;20047;-72
2022/05/12 12:17:26;;;;;;;5.82;1.20;;;;;;;;;;5021516;28;20408;-71
2022/05/12 12:19:56;;;;;;;4.03;1.05;;;;;;;;;;5025195;28;20132;-72
2022/05/12 12:22:43;;;;;;;3.63;1.00;;;20.00;99.90;;;;;;5004358;28;20088;-72
2022/05/12 12:25:09;;;;;;;4.22;1.40;;;;;;;;;;5027615;28;20141;-72
2022/05/12 12:27:59;;;;;;;10.15;2.17;;;;;;;;;;5039664;28;20144;-73
2022/05/12 12:30:27;;;;;;;6.78;1.17;;;;;;;;;;5049163;28;20448;-72
2022/05/12 12:33:09;;;;;;;4.95;1.48;;;;;;;;;;5020968;28;20136;-73
2022/05/12 12:35:50;;;;;;;3.97;1.20;;;;;;;;;;5012251;28;20045;-73
2022/05/12 12:38:46;;;;;;;4.85;1.30;;;20.30;99.90;;;;;;5040838;28;20124;-72
2022/05/12 12:41:19;;;;;;;5.10;0.98;;;20.00;99.80;;;;;;5016880;28;20046;-72
2022/05/12 12:43:59;;;;;;;4.13;1.10;;;;;;;;;;5018065;28;20057;-73
2022/05/12 12:46:26;;;;;;;;;;;19.50;99.90;;;;;;5014105;28;20049;-70
2022/05/12 12:49:16;;;;;;;5.80;1.40;;;;;;;;;;5031358;28;19928;-71
2022/05/12 12:51:43;;;;;;;4.03;1.33;;;;;;;;;;5046127;28;20512;-77
2022/05/12 12:57:18;;;;;;;5.60;1.20;;;;;;;;;;5051047;28;20040;-61
2022/05/12 12:59:50;;;;;;;5.20;1.00;;;;;;;;;;5045424;28;20052;-61
2022/05/12 13:02:40;;;;;;;4.72;0.95;;;;;;;;;;5032601;28;20124;-69
2022/05/12 13:05:27;;;;;;;5.57;1.02;;;;;;;;;;5029475;28;20124;-69
2022/05/12 13:07:59;;;;;;;3.72;1.20;;;;;;;;;;5038664;28;20567;-70
2022/05/12 13:10:26;;;;;;;4.88;1.20;;;;;;;;;;5030624;28;20053;-67
2022/05/12 13:12:54;;;;;;;3.42;0.93;;;;;;;;;;5033812;28;20052;-63
2022/05/12 13:15:21;;;;;;;3.75;1.10;;;;;;;;;;5028476;28;20080;-73
2022/05/12 13:17:50;;;;;;;4.80;1.00;;;;;;;;;;5049654;28;20045;-61
2022/05/12 13:20:20;;;;;;;4.65;1.00;;;;;;;;;;5045810;28;21648;-63
2022/05/12 13:22:48;;;;;;;4.93;1.10;;;;;;;;;;5039029;28;20068;-69
2022/05/12 13:25:23;;;;;;;3.75;1.17;;;20.40;98.00;;;;;;5025924;28;20154;-74
2022/05/12 13:27:50;;;;;;;4.88;1.38;;;;;;;;;;5036064;28;20053;-72
2022/05/12 13:30:19;;;;;;;3.35;0.93;;;;;;;;;;5019105;28;20045;-69
2022/05/12 13:32:54;;;;;;;4.60;1.40;;;20.50;97.60;;;;;;5034632;28;20055;-70
2022/05/12 13:35:25;;;;;;;2.13;0.82;;;;;;;;;;5028034;28;20048;-71
2022/05/12 13:38:13;;;;;;;6.13;0.98;;;;;;;;;;5000326;28;20397;-79
2022/05/12 13:40:39;;;;;;;4.72;1.00;;;;;;;;;;5021454;28;20084;-68
2022/05/12 13:43:05;;;;;;;4.97;1.08;;;;;;;;;;5019685;28;20405;-72
2022/05/12 13:45:32;;;;;;;5.15;1.38;;;;;;;;;;5024216;28;20501;-69
2022/05/12 13:47:59;;;;;;;5.30;1.27;;;;;;;;;;5042858;28;20076;-67
2022/05/12 13:50:36;;;;;;;3.55;1.20;;;;;;;;;;5052030;28;20067;-65
2022/05/12 13:53:03;;;;;;;3.35;1.10;;;;;;;;;;5053568;28;20060;-68
2022/05/12 13:55:32;;;;;;;5.35;1.20;;;19.80;98.70;;;;;;5050802;28;20436;-67
2022/05/12 13:58:04;;;;;;;5.03;1.73;;;;;;;;;;5004210;28;20493;-66
2022/05/12 14:00:37;;;;;;;6.10;1.20;;;;;;;;;;5026321;28;20076;-68
2022/05/12 14:03:19;;;;;;;4.22;1.20;;;;;;;;;;5010548;28;20554;-70
2022/05/12 14:05:45;;;;;;;5.53;1.15;;;;;;;;;;5028864;28;20041;-66
2022/05/12 14:08:14;;;;;;;6.05;1.42;;;;;;;;;;5052209;28;20053;-72
2022/05/12 14:10:48;;;;;;;3.53;1.40;;;;;;;;;;5051558;28;20558;-72
2022/05/12 14:21:31;;;;;;;3.70;0.90;;;;;;;;;;5037796;28;20057;-63
2022/05/12 14:23:57;;;;;;;5.15;1.20;;;;;;;;;;5041406;28;20041;-68
2022/05/12 14:26:23;;;;;;;6.13;1.20;;;;;;;;;;5025787;28;20057;-66
2022/05/12 14:28:49;;;;;;;5.35;2.03;;;;;;;;;;5009226;28;20045;-67
2022/05/12 14:31:17;;;;;;;4.88;0.93;;;19.30;99.80;;;;;;5043629;28;20041;-66
2022/05/12 14:33:43;;;;;;;4.07;0.80;;;;;;;;;;5042734;28;20045;-67
2022/05/12 14:36:09;;;;;;;3.28;0.93;;;;;;;;;;5027916;28;20052;-68
2022/05/12 14:38:35;;;;;;;6.28;1.13;;;;;;;;;;5042358;28;20053;-69
2022/05/12 14:41:01;;;;;;;5.60;0.93;;;;;;;;;;5012916;28;20075;-73
2022/05/12 14:43:28;;;;;;;2.80;1.27;;;;;;;;;;5030985;28;20127;-71
2022/05/12 14:45:54;;;;;;;4.07;1.02;;;;;;;;;;5038548;28;20120;-72
2022/05/12 14:48:20;;;;;;;5.28;1.00;;;;;;;;;;5044555;28;20083;-71
2022/05/12 14:50:47;;;;;;;3.40;1.05;;;;;;;;;;5045585;28;20045;-70
2022/05/12 14:53:14;;;;;;;3.17;0.70;;;;;;;;;;5025272;28;20045;-71
2022/05/12 14:55:41;;;;;;;2.45;0.70;;;;;;;;;;5046923;28;20089;-71
2022/05/12 14:58:07;;;;;;;5.68;0.90;;;;;;;;;;5030014;28;20091;-69
2022/05/12 15:00:34;;;;;;;3.13;0.90;;;;;;;;;;5052032;28;20420;-70
2022/05/12 15:03:00;;;;;;;3.20;1.02;;;;;;;;;;5047415;28;20049;-72